KNJK/NJK METAR and TAF weather

Enter ICAO airport designator
Station Type Date Time Source
KNJK METAR 2019/06/17 13:56 UTC NOAA

KNJK 171356Z 14003KT 10SM FEW250 23/16 A2973 RMK AO2 SLP082 T02330156


Station Type Date Time Source
KNJK Decoded METAR 2019/06/17 13:56 UTC NOAA

El Centro, Naval Air Facility, CA, United States (KNJK) 32-49-30N 115-39-38W -13M
Jun 17, 2019 - 09:56 AM EDT / 2019.06.17 1356 UTC
Wind: from the SE (140 degrees) at 3 MPH (3 KT):0
Visibility: 10 mile(s):0
Sky conditions: mostly clear
Temperature: 73.9 F (23.3 C)
Dew Point: 60.1 F (15.6 C)
Relative Humidity: 61%
Pressure (altimeter): 29.73 in. Hg (1006 hPa)
ob: KNJK 171356Z 14003KT 10SM FEW250 23/16 A2973 RMK AO2 SLP082 T02330156
cycle: 14

Station Type Date Time Source
KNJK TAF 2019/06/17 07:59 UTC NOAA

TAF KNJK 1707/1807 27012KT 9999 FEW200 QNH2963INS
FM171800 24008KT 9999 SKC QNH2958INS
TEMPO 1803/1805 26015G26KT AUTOMATED SENSOR METWATCH 1707 TIL 1715 T20/1713Z T39/1723Z FS30144

Example: see airport list